Dagmar Theresa — 9HA2338 — position and weather

sailwx.info

Track history (hours):
 
Tides and Currents Weather Stations Pressure Air Temp Water Temp Dewpoint Dewpoint Depression Visibility Wind Speed Wind Dir Waves Ship Positions

Dagmar Theresa

Last reported at 2018-Jan-09 16:52 UTC. Time now 2018-Feb-22 10:59 UTC.
Position N 51°29' E 000°53'.
Warning: this ship's position is 43 days out of date.

Length 92 m; draft 5.2 m.

Type: Ship. MMSI: 248370000.

Date/timePositionNaut miles runAvg speedWind from/ knotsBaromVisibWave heightAir tempDewpointWater temp
2018-Jan-09 16:52N 51°29' E 000°53'411.2
2018-Jan-09 16:29N 51°30' E 000°60'612.6
2018-Jan-09 16:00N 51°29' E 001°10'612.8
2018-Jan-09 15:30N 51°29' E 001°20'611.3
2018-Jan-09 15:00N 51°26' E 001°28'1 1.7
2018-Jan-09 14:30N 51°25' E 001°27'0 0.0
2018-Jan-09 14:00N 51°25' E 001°26'0 0.0
2018-Jan-09 13:30N 51°25' E 001°26'0 0.0
2018-Jan-09 13:00N 51°25' E 001°27'0 0.0
2018-Jan-09 12:30N 51°25' E 001°26'0 0.0
2018-Jan-09 12:00N 51°25' E 001°27'0 0.1
2018-Jan-09 11:30N 51°25' E 001°27'0 0.1
2018-Jan-09 11:00N 51°25' E 001°27'0 0.0
2018-Jan-09 10:30N 51°25' E 001°27'0 0.0
2018-Jan-09 10:00N 51°25' E 001°27'0 0.0
2018-Jan-09 09:30N 51°25' E 001°27'0 0.0
2018-Jan-09 09:00N 51°25' E 001°27'0 0.0
2018-Jan-09 08:30N 51°25' E 001°27'0 0.0
2018-Jan-09 08:00N 51°25' E 001°27'0 0.0
2018-Jan-09 07:30N 51°25' E 001°27'0 0.1
2018-Jan-09 07:00N 51°25' E 001°27'0 0.1
2018-Jan-09 06:30N 51°25' E 001°26'0 0.0
2018-Jan-09 06:00N 51°25' E 001°26'0 0.0
2018-Jan-09 05:30N 51°25' E 001°26'0 0.0
2018-Jan-09 05:00N 51°25' E 001°26'0 0.0
2018-Jan-09 04:30N 51°25' E 001°26'0 0.0
2018-Jan-09 04:00N 51°25' E 001°26'0 0.1
2018-Jan-09 03:30N 51°25' E 001°26'0 0.0
2018-Jan-09 03:00N 51°25' E 001°26'0 0.1
2018-Jan-09 02:30N 51°25' E 001°26'0 0.0
2018-Jan-09 02:00N 51°25' E 001°26'0 0.0
2018-Jan-09 01:30N 51°25' E 001°27'0 0.0
2018-Jan-09 01:00N 51°25' E 001°27'0 0.0
2018-Jan-09 00:30N 51°25' E 001°27'0 0.0
2018-Jan-09 00:00N 51°25' E 001°26'0 0.0
2018-Jan-08 23:30N 51°25' E 001°26'0 0.0
2018-Jan-08 23:00N 51°25' E 001°26'0 0.0
2018-Jan-08 22:30N 51°25' E 001°26'0 0.1
2018-Jan-08 22:00N 51°25' E 001°27'0 0.1
2018-Jan-08 21:30N 51°25' E 001°27'0 0.1
2018-Jan-08 21:00N 51°25' E 001°27'0 0.0
2018-Jan-08 20:30N 51°25' E 001°27'0 0.0
2018-Jan-08 20:00N 51°25' E 001°27'0 0.0
2018-Jan-08 19:30N 51°25' E 001°27'0 0.1
2018-Jan-08 19:00N 51°25' E 001°27'0 0.2
2018-Jan-08 18:30N 51°25' E 001°26'0 0.1
2018-Jan-08 18:00N 51°25' E 001°26'0 0.0
2018-Jan-08 17:30N 51°25' E 001°26'0 0.0
2018-Jan-08 17:00N 51°25' E 001°26'0 0.0
2018-Jan-08 16:30N 51°25' E 001°26'0 0.0
2018-Jan-08 16:00N 51°25' E 001°26'0 0.0
2018-Jan-08 15:30N 51°25' E 001°26'0 0.0
2018-Jan-08 15:00N 51°25' E 001°26'0 0.0
2018-Jan-08 14:30N 51°25' E 001°26'0 0.1
2018-Jan-08 14:00N 51°25' E 001°26'0 0.0
2018-Jan-08 13:30N 51°25' E 001°27'0 0.0
2018-Jan-08 13:00N 51°25' E 001°27'0 0.0
2018-Jan-08 12:30N 51°25' E 001°27'0 0.0
2018-Jan-08 12:00N 51°25' E 001°27'0 0.0
2018-Jan-08 11:30N 51°25' E 001°27'0 0.0
2018-Jan-08 11:00N 51°25' E 001°27'0 0.0
2018-Jan-08 10:30N 51°25' E 001°27'0 0.0
2018-Jan-08 10:00N 51°25' E 001°27'0 0.2
2018-Jan-08 09:30N 51°25' E 001°27'0 0.1
2018-Jan-08 09:00N 51°25' E 001°27'0 0.0
2018-Jan-08 08:30N 51°25' E 001°27'0 0.0
2018-Jan-08 08:00N 51°25' E 001°27'0 0.2
2018-Jan-08 07:30N 51°25' E 001°27'1 1.3
2018-Jan-08 07:01N 51°26' E 001°28'5 9.0
2018-Jan-08 06:30N 51°28' E 001°34'5 9.4
2018-Jan-08 06:01N 51°30' E 001°40'5 9.5
2018-Jan-08 05:31N 51°32' E 001°47'5 9.4
2018-Jan-08 05:00N 51°35' E 001°54'5 9.3
2018-Jan-08 04:30N 51°37' E 002°00'265 7.8
2018-Jan-06 18:46N 54°01' E 008°08'1 5.0
2018-Jan-06 18:30N 54°02' E 008°10'0 0.1
2018-Jan-06 18:00N 54°02' E 008°10'0 0.0
2018-Jan-06 17:30N 54°02' E 008°10'0 0.1
2018-Jan-06 17:00N 54°02' E 008°10'0 0.0
2018-Jan-06 16:30N 54°02' E 008°10'0 0.1
2018-Jan-06 16:00N 54°02' E 008°10'0 0.1
2018-Jan-06 15:26N 54°02' E 008°10'0 0.1
2018-Jan-06 15:00N 54°02' E 008°10'0 0.0
2018-Jan-06 14:30N 54°02' E 008°10'0 0.1
2018-Jan-06 13:57N 54°02' E 008°10'0 0.0
2018-Jan-06 13:30N 54°02' E 008°10'0 0.0
2018-Jan-06 12:04N 54°02' E 008°10'0 0.0
2018-Jan-06 12:00N 54°02' E 008°10'0 0.0
2018-Jan-06 11:29N 54°02' E 008°10'0 0.0
2018-Jan-06 11:00N 54°02' E 008°10'0 0.4
2018-Jan-06 10:29N 54°02' E 008°10'610.0
2018-Jan-06 09:50N 53°60' E 008°20'511.9
2018-Jan-06 09:27N 53°59' E 008°28'612.8
2018-Jan-06 09:00N 53°57' E 008°38'714.5
2018-Jan-06 08:30N 53°52' E 008°45'714.0
2018-Jan-06 08:00N 53°51' E 008°57'713.8
2018-Jan-06 07:30N 53°53' E 009°08'612.9
2018-Jan-06 07:00N 53°51' E 009°18'612.1
2018-Jan-06 06:31N 53°46' E 009°24'511.0
2018-Jan-06 06:01N 53°42' E 009°30'510.1
2018-Jan-06 05:30N 53°37' E 009°33'5 9.4
2018-Jan-06 05:01N 53°34' E 009°39'5 9.0
2018-Jan-06 04:30N 53°34' E 009°46'4 8.6
2018-Jan-06 04:01N 53°33' E 009°53'3 6.6
2018-Jan-06 03:31N 53°30' E 009°57'2 2.7
2018-Jan-06 02:55N 53°28' E 009°58'0 0.0
2018-Jan-06 02:28N 53°28' E 009°58'0 0.0
2018-Jan-06 01:58N 53°28' E 009°58'0 0.0
2018-Jan-06 01:25N 53°28' E 009°58'0 0.0
2018-Jan-06 00:58N 53°28' E 009°58'0 0.0
2018-Jan-06 00:28N 53°28' E 009°58'0 0.0
2018-Jan-05 23:58N 53°28' E 009°58'0 0.0
2018-Jan-05 23:28N 53°28' E 009°58'0 0.0
2018-Jan-05 22:58N 53°28' E 009°58'0 0.0
2018-Jan-05 22:28N 53°28' E 009°58'0 0.0
2018-Jan-05 21:55N 53°28' E 009°58'0 0.0
2018-Jan-05 21:28N 53°28' E 009°58'0 0.0
2018-Jan-05 20:58N 53°28' E 009°58'0 0.0
2018-Jan-05 20:28N 53°28' E 009°58'0 0.0
2018-Jan-05 19:58N 53°28' E 009°58'0 0.0
2018-Jan-05 19:28N 53°28' E 009°58'0 0.0
2018-Jan-05 18:58N 53°28' E 009°58'0 0.0
2018-Jan-05 18:30N 53°28' E 009°58'0 0.0
2018-Jan-05 18:01N 53°28' E 009°58'0 0.3
2018-Jan-05 17:30N 53°29' E 009°58'1 2.9
2018-Jan-05 17:01N 53°30' E 009°57'3 5.5
2018-Jan-05 16:31N 53°32' E 009°55'4 7.7
2018-Jan-05 16:00N 53°33' E 009°49'510.4
2018-Jan-05 15:30N 53°34' E 009°40'510.7
2018-Jan-05 15:01N 53°37' E 009°33'510.9
2018-Jan-05 14:30N 53°42' E 009°29'510.3
2018-Jan-05 14:01N 53°46' E 009°24'510.5
2018-Jan-05 13:30N 53°51' E 009°19'510.6
2018-Jan-05 13:00N 53°53' E 009°11'5 9.3
2018-Jan-05 12:30N 53°52' E 009°03'5 9.7
2018-Jan-05 12:00N 53°51' E 008°56'5 9.9
2018-Jan-05 11:30N 53°50' E 008°47'5 9.3
2018-Jan-05 11:01N 53°54' E 008°42'5 9.4
2018-Jan-05 10:30N 53°57' E 008°37'510.2
2018-Jan-05 10:00N 53°58' E 008°28'510.4
2018-Jan-05 09:30N 53°59' E 008°20'611.8
2018-Jan-05 09:00N 53°59' E 008°09'611.4
2018-Jan-05 08:30N 53°58' E 008°00'8 2.8
2018-Jan-05 05:41N 53°51' E 008°03'3 9.8
2018-Jan-05 05:24N 53°49' E 008°07'410.9
2018-Jan-05 05:00N 53°46' E 008°11'611.9
2018-Jan-05 04:31N 53°42' E 008°19'612.0
2018-Jan-05 04:01N 53°38' E 008°26'611.4
2018-Jan-05 03:31N 53°34' E 008°33'4 8.4
2018-Jan-05 03:00N 53°30' E 008°31'510.1
2018-Jan-05 02:31N 53°25' E 008°30'4 2.8
2018-Jan-05 00:59N 53°21' E 008°30'0 0.0
2018-Jan-05 00:30N 53°21' E 008°30'0 0.0
2018-Jan-04 23:59N 53°21' E 008°30'0 0.0
2018-Jan-04 23:30N 53°21' E 008°30'0 0.0
2018-Jan-04 23:00N 53°21' E 008°30'0 0.0
2018-Jan-04 22:30N 53°21' E 008°30'0 0.0
2018-Jan-04 22:00N 53°21' E 008°30'0 0.0
2018-Jan-04 21:30N 53°21' E 008°30'0 0.0
2018-Jan-04 21:00N 53°21' E 008°30'0 0.0
2018-Jan-04 20:30N 53°21' E 008°30'0 0.0
2018-Jan-04 20:00N 53°21' E 008°30'0 0.0
2018-Jan-04 19:30N 53°21' E 008°30'0 0.0
2018-Jan-04 19:00N 53°21' E 008°30'0 0.0
2018-Jan-04 18:30N 53°21' E 008°30'0 0.0
2018-Jan-04 17:58N 53°21' E 008°30'0 0.0
2018-Jan-04 17:30N 53°21' E 008°30'0 0.0
2018-Jan-04 16:50N 53°21' E 008°30'0 0.0
2018-Jan-04 16:26N 53°21' E 008°30'0 0.0
2018-Jan-04 16:00N 53°21' E 008°30'0 0.0
2018-Jan-04 15:30N 53°21' E 008°30'0 0.0
2018-Jan-04 14:59N 53°21' E 008°30'0 0.0
2018-Jan-04 14:30N 53°21' E 008°30'0 0.0
2018-Jan-04 13:59N 53°21' E 008°30'0 0.0
2018-Jan-04 13:30N 53°21' E 008°30'0 0.0
2018-Jan-04 12:57N 53°21' E 008°30'0 0.0
2018-Jan-04 12:29N 53°21' E 008°30'0 0.0
2018-Jan-04 12:00N 53°21' E 008°30'0 0.0
2018-Jan-04 11:30N 53°21' E 008°30'0 0.0
2018-Jan-04 10:59N 53°21' E 008°30'0 0.0
2018-Jan-04 09:27N 53°21' E 008°30'0 0.0
2018-Jan-04 09:00N 53°21' E 008°30'0 0.0
2018-Jan-04 08:17N 53°21' E 008°30'0 0.0
2018-Jan-04 07:56N 53°21' E 008°30'0 0.0
2018-Jan-04 07:30N 53°21' E 008°30'0 0.0
2018-Jan-04 07:00N 53°21' E 008°30'0 0.0
2018-Jan-04 06:30N 53°21' E 008°30'0 0.0
2018-Jan-04 06:00N 53°21' E 008°30'0 0.0
2018-Jan-04 05:30N 53°21' E 008°30'0 0.0
2018-Jan-04 05:00N 53°21' E 008°30'0 0.0
2018-Jan-04 04:30N 53°21' E 008°30'0 0.0
2018-Jan-04 04:00N 53°21' E 008°30'0 0.0
2018-Jan-04 03:30N 53°21' E 008°30'0 0.0
2018-Jan-04 03:00N 53°21' E 008°30'0 0.0
2018-Jan-04 02:30N 53°21' E 008°30'0 0.0
2018-Jan-04 02:00N 53°21' E 008°30'0 0.0
2018-Jan-04 01:29N 53°21' E 008°30'0 0.0
2018-Jan-04 01:00N 53°21' E 008°30'0 0.0
2018-Jan-04 00:30N 53°21' E 008°30'0 0.0
2018-Jan-03 22:48N 53°21' E 008°30'0 0.0
2018-Jan-03 22:30N 53°21' E 008°30'0 0.3
2018-Jan-03 22:00N 53°21' E 008°30'5 9.3
2018-Jan-03 21:30N 53°25' E 008°30'5 9.9
2018-Jan-03 21:00N 53°30' E 008°31'3 6.9
2018-Jan-03 20:30N 53°33' E 008°33'5 9.3
2018-Jan-03 20:00N 53°37' E 008°28'5 9.0
2018-Jan-03 19:30N 53°40' E 008°22'4 8.3
2018-Jan-03 19:00N 53°43' E 008°17'5 8.9
2018-Jan-03 18:30N 53°46' E 008°11'4 7.2
2018-Jan-03 18:00N 53°48' E 008°08'4 8.9
2018-Jan-03 17:31N 53°51' E 008°01'4 8.6
2018-Jan-03 17:00N 53°52' E 007°54'89 9.6
2018-Jan-03 07:40N 53°34' E 005°26'211.4
2018-Jan-03 07:27N 53°33' E 005°22'612.0
2018-Jan-03 06:57N 53°31' E 005°12'512.1
2018-Jan-03 06:30N 53°29' E 005°04'612.0
2018-Jan-03 06:00N 53°27' E 004°55'611.2
2018-Jan-03 05:29N 53°25' E 004°45'1911.4
2018-Jan-03 03:47N 53°08' E 004°29'711.7
2018-Jan-03 03:09N 53°02' E 004°23'211.1
2018-Jan-03 03:00N 53°00' E 004°22'510.9
2018-Jan-03 02:30N 52°55' E 004°18'510.6
2018-Jan-03 02:00N 52°51' E 004°14'510.8
2018-Jan-03 01:30N 52°46' E 004°08'510.4
2018-Jan-03 01:00N 52°42' E 004°03'510.0
2018-Jan-03 00:30N 52°38' E 003°59'5 9.4
2018-Jan-03 00:00N 52°34' E 003°56'5 9.4
2018-Jan-02 23:31N 52°29' E 003°55'5 9.2
2018-Jan-02 23:01N 52°25' E 003°53'5 9.1
2018-Jan-02 22:30N 52°20' E 003°52'5 9.0
2018-Jan-02 21:58N 52°15' E 003°52'4 9.1
2018-Jan-02 21:30N 52°11' E 003°53'4 8.9
2018-Jan-02 21:00N 52°07' E 003°54'4 8.1
2018-Jan-02 20:30N 52°03' E 003°54'5 9.6
2018-Jan-02 20:00N 52°00' E 004°01'612.1
2018-Jan-02 19:30N 51°58' E 004°09'713.0
2018-Jan-02 19:00N 51°54' E 004°18'2 3.1
2018-Jan-02 18:28N 51°53' E 004°21'0 0.0
2018-Jan-02 17:58N 51°53' E 004°21'0 0.0
2018-Jan-02 17:28N 51°53' E 004°21'0 0.0
2018-Jan-02 16:58N 51°53' E 004°21'0 0.0
2018-Jan-02 16:30N 51°53' E 004°21'0 0.0
2018-Jan-02 16:00N 51°53' E 004°21'0 0.0
2018-Jan-02 15:30N 51°53' E 004°21'0 0.0
2018-Jan-02 15:00N 51°53' E 004°21'0 0.0
2018-Jan-02 14:30N 51°53' E 004°21'0 0.0
2018-Jan-02 14:00N 51°53' E 004°21'0 0.0
2018-Jan-02 13:30N 51°53' E 004°21'0 0.0
2018-Jan-02 13:00N 51°53' E 004°21'0 0.0
2018-Jan-02 12:30N 51°53' E 004°21'0 0.0
2018-Jan-02 12:00N 51°53' E 004°21'0 0.0
2018-Jan-02 11:30N 51°53' E 004°21'0 0.0
2018-Jan-02 11:00N 51°53' E 004°21'0 0.0
2018-Jan-02 10:30N 51°53' E 004°21'0 0.0
2018-Jan-02 10:00N 51°53' E 004°21'0 0.0
2018-Jan-02 09:31N 51°53' E 004°21'0 0.0
2018-Jan-02 08:30N 51°53' E 004°21'0 0.0
2018-Jan-02 07:59N 51°53' E 004°21'0 0.0
2018-Jan-02 07:30N 51°53' E 004°21'0 0.0
2018-Jan-02 07:00N 51°53' E 004°21'0 0.0
2018-Jan-02 06:30N 51°53' E 004°21'0 0.0
2018-Jan-02 06:00N 51°53' E 004°21'0 0.0
2018-Jan-02 05:30N 51°53' E 004°21'0 0.0
2018-Jan-02 04:30N 51°53' E 004°21'0 0.0
2018-Jan-02 04:00N 51°53' E 004°21'0 0.0
2018-Jan-02 03:30N 51°53' E 004°21'0 0.0
2018-Jan-02 03:00N 51°53' E 004°21'0 0.0
2018-Jan-02 02:30N 51°53' E 004°21'0 0.0
2018-Jan-02 02:00N 51°53' E 004°21'0 0.0
2018-Jan-02 01:30N 51°53' E 004°21'0 0.0
2018-Jan-02 01:00N 51°53' E 004°21'0 0.0
2018-Jan-02 00:30N 51°53' E 004°21'0 0.0
2018-Jan-02 00:00N 51°53' E 004°21'0 0.0
2018-Jan-01 23:30N 51°53' E 004°21'0 0.0
2018-Jan-01 23:00N 51°53' E 004°21'0 0.0
2018-Jan-01 22:30N 51°53' E 004°21'0 0.0
2018-Jan-01 22:00N 51°53' E 004°21'0 0.0
2018-Jan-01 21:30N 51°53' E 004°21'0 0.0
2018-Jan-01 21:00N 51°53' E 004°21'0 0.0
2018-Jan-01 20:30N 51°53' E 004°21'0 0.0
2018-Jan-01 20:00N 51°53' E 004°21'0 0.0
2018-Jan-01 19:30N 51°53' E 004°21'0 0.0
2018-Jan-01 19:00N 51°53' E 004°21'0 0.0
2018-Jan-01 18:30N 51°53' E 004°21'0 0.0
2018-Jan-01 18:00N 51°53' E 004°21'0 0.0
2018-Jan-01 17:30N 51°53' E 004°21'0 0.0
2018-Jan-01 15:00N 51°53' E 004°21'0 0.0
2018-Jan-01 14:30N 51°53' E 004°21'0 0.0
2018-Jan-01 14:00N 51°53' E 004°21'0 0.0
2018-Jan-01 13:30N 51°53' E 004°21'0 0.0
2018-Jan-01 13:00N 51°53' E 004°21'0 0.0
2018-Jan-01 12:00N 51°53' E 004°21'0 0.0
2018-Jan-01 11:30N 51°53' E 004°21'0 0.0
2018-Jan-01 11:00N 51°53' E 004°21'0 0.0
2018-Jan-01 10:30N 51°53' E 004°21'0 0.0
2018-Jan-01 10:01N 51°53' E 004°21'0 0.0
2018-Jan-01 09:30N 51°53' E 004°21'0 0.0
2018-Jan-01 08:30N 51°53' E 004°21'0 0.0
2018-Jan-01 07:59N 51°53' E 004°21'0 0.0
2018-Jan-01 07:30N 51°53' E 004°21'0 0.0
2018-Jan-01 07:00N 51°53' E 004°21'0 0.0
2018-Jan-01 06:00N 51°53' E 004°21'0 0.0
2018-Jan-01 05:30N 51°53' E 004°21'0 0.0
2018-Jan-01 05:00N 51°53' E 004°21'0 0.0
2018-Jan-01 04:00N 51°53' E 004°21'0 0.0
2018-Jan-01 03:30N 51°53' E 004°21'0 0.0
2018-Jan-01 03:00N 51°53' E 004°21'0 0.0
2018-Jan-01 02:30N 51°53' E 004°21'0 0.0
2018-Jan-01 02:00N 51°53' E 004°21'0 0.0
2018-Jan-01 01:30N 51°53' E 004°21'0 0.0
2018-Jan-01 00:30N 51°53' E 004°21'20 5.8
2017-Dec-31 21:00N 51°59' E 003°49'4 8.3
2017-Dec-31 20:30N 51°57' E 003°43'0 0.1
2017-Dec-31 20:01N 51°57' E 003°43'0 0.0
2017-Dec-31 19:09N 51°57' E 003°43'0 0.1
2017-Dec-31 17:54N 51°57' E 003°43'1 3.2
2017-Dec-31 17:28N 51°57' E 003°41'  
Track history (hours):
 
Tides and Currents Weather Stations Pressure Air Temp Water Temp Dewpoint Dewpoint Depression Visibility Wind Speed Wind Dir Waves Ship Positions

Dagmar Theresa

Last reported at 2018-Jan-09 16:52 UTC. Time now 2018-Feb-22 10:59 UTC.
Position N 51°29' E 000°53'.
Warning: this ship's position is 43 days out of date.

Length 92 m; draft 5.2 m.

Type: Ship. MMSI: 248370000.

Date/timePositionNaut miles runAvg speedWind from/ knotsBaromVisibWave heightAir tempDewpointWater temp
2018-Jan-09 16:52N 51°29' E 000°53'411.2
2018-Jan-09 16:29N 51°30' E 000°60'612.6
2018-Jan-09 16:00N 51°29' E 001°10'612.8
2018-Jan-09 15:30N 51°29' E 001°20'611.3
2018-Jan-09 15:00N 51°26' E 001°28'1 1.7
2018-Jan-09 14:30N 51°25' E 001°27'0 0.0
2018-Jan-09 14:00N 51°25' E 001°26'0 0.0
2018-Jan-09 13:30N 51°25' E 001°26'0 0.0
2018-Jan-09 13:00N 51°25' E 001°27'0 0.0
2018-Jan-09 12:30N 51°25' E 001°26'0 0.0
2018-Jan-09 12:00N 51°25' E 001°27'0 0.1
2018-Jan-09 11:30N 51°25' E 001°27'0 0.1
2018-Jan-09 11:00N 51°25' E 001°27'0 0.0
2018-Jan-09 10:30N 51°25' E 001°27'0 0.0
2018-Jan-09 10:00N 51°25' E 001°27'0 0.0
2018-Jan-09 09:30N 51°25' E 001°27'0 0.0
2018-Jan-09 09:00N 51°25' E 001°27'0 0.0
2018-Jan-09 08:30N 51°25' E 001°27'0 0.0
2018-Jan-09 08:00N 51°25' E 001°27'0 0.0
2018-Jan-09 07:30N 51°25' E 001°27'0 0.1
2018-Jan-09 07:00N 51°25' E 001°27'0 0.1
2018-Jan-09 06:30N 51°25' E 001°26'0 0.0
2018-Jan-09 06:00N 51°25' E 001°26'0 0.0
2018-Jan-09 05:30N 51°25' E 001°26'0 0.0
2018-Jan-09 05:00N 51°25' E 001°26'0 0.0
2018-Jan-09 04:30N 51°25' E 001°26'0 0.0
2018-Jan-09 04:00N 51°25' E 001°26'0 0.1
2018-Jan-09 03:30N 51°25' E 001°26'0 0.0
2018-Jan-09 03:00N 51°25' E 001°26'0 0.1
2018-Jan-09 02:30N 51°25' E 001°26'0 0.0
2018-Jan-09 02:00N 51°25' E 001°26'0 0.0
2018-Jan-09 01:30N 51°25' E 001°27'0 0.0
2018-Jan-09 01:00N 51°25' E 001°27'0 0.0
2018-Jan-09 00:30N 51°25' E 001°27'0 0.0
2018-Jan-09 00:00N 51°25' E 001°26'0 0.0
2018-Jan-08 23:30N 51°25' E 001°26'0 0.0
2018-Jan-08 23:00N 51°25' E 001°26'0 0.0
2018-Jan-08 22:30N 51°25' E 001°26'0 0.1
2018-Jan-08 22:00N 51°25' E 001°27'0 0.1
2018-Jan-08 21:30N 51°25' E 001°27'0 0.1
2018-Jan-08 21:00N 51°25' E 001°27'0 0.0
2018-Jan-08 20:30N 51°25' E 001°27'0 0.0
2018-Jan-08 20:00N 51°25' E 001°27'0 0.0
2018-Jan-08 19:30N 51°25' E 001°27'0 0.1
2018-Jan-08 19:00N 51°25' E 001°27'0 0.2
2018-Jan-08 18:30N 51°25' E 001°26'0 0.1
2018-Jan-08 18:00N 51°25' E 001°26'0 0.0
2018-Jan-08 17:30N 51°25' E 001°26'0 0.0
2018-Jan-08 17:00N 51°25' E 001°26'0 0.0
2018-Jan-08 16:30N 51°25' E 001°26'0 0.0
2018-Jan-08 16:00N 51°25' E 001°26'0 0.0
2018-Jan-08 15:30N 51°25' E 001°26'0 0.0
2018-Jan-08 15:00N 51°25' E 001°26'0 0.0
2018-Jan-08 14:30N 51°25' E 001°26'0 0.1
2018-Jan-08 14:00N 51°25' E 001°26'0 0.0
2018-Jan-08 13:30N 51°25' E 001°27'0 0.0
2018-Jan-08 13:00N 51°25' E 001°27'0 0.0
2018-Jan-08 12:30N 51°25' E 001°27'0 0.0
2018-Jan-08 12:00N 51°25' E 001°27'0 0.0
2018-Jan-08 11:30N 51°25' E 001°27'0 0.0
2018-Jan-08 11:00N 51°25' E 001°27'0 0.0
2018-Jan-08 10:30N 51°25' E 001°27'0 0.0
2018-Jan-08 10:00N 51°25' E 001°27'0 0.2
2018-Jan-08 09:30N 51°25' E 001°27'0 0.1
2018-Jan-08 09:00N 51°25' E 001°27'0 0.0
2018-Jan-08 08:30N 51°25' E 001°27'0 0.0
2018-Jan-08 08:00N 51°25' E 001°27'0 0.2
2018-Jan-08 07:30N 51°25' E 001°27'1 1.3
2018-Jan-08 07:01N 51°26' E 001°28'5 9.0
2018-Jan-08 06:30N 51°28' E 001°34'5 9.4
2018-Jan-08 06:01N 51°30' E 001°40'5 9.5
2018-Jan-08 05:31N 51°32' E 001°47'5 9.4
2018-Jan-08 05:00N 51°35' E 001°54'5 9.3
2018-Jan-08 04:30N 51°37' E 002°00'265 7.8
2018-Jan-06 18:46N 54°01' E 008°08'1 5.0
2018-Jan-06 18:30N 54°02' E 008°10'0 0.1
2018-Jan-06 18:00N 54°02' E 008°10'0 0.0
2018-Jan-06 17:30N 54°02' E 008°10'0 0.1
2018-Jan-06 17:00N 54°02' E 008°10'0 0.0
2018-Jan-06 16:30N 54°02' E 008°10'0 0.1
2018-Jan-06 16:00N 54°02' E 008°10'0 0.1
2018-Jan-06 15:26N 54°02' E 008°10'0 0.1
2018-Jan-06 15:00N 54°02' E 008°10'0 0.0
2018-Jan-06 14:30N 54°02' E 008°10'0 0.1
2018-Jan-06 13:57N 54°02' E 008°10'0 0.0
2018-Jan-06 13:30N 54°02' E 008°10'0 0.0
2018-Jan-06 12:04N 54°02' E 008°10'0 0.0
2018-Jan-06 12:00N 54°02' E 008°10'0 0.0
2018-Jan-06 11:29N 54°02' E 008°10'0 0.0
2018-Jan-06 11:00N 54°02' E 008°10'0 0.4
2018-Jan-06 10:29N 54°02' E 008°10'610.0
2018-Jan-06 09:50N 53°60' E 008°20'511.9
2018-Jan-06 09:27N 53°59' E 008°28'612.8
2018-Jan-06 09:00N 53°57' E 008°38'714.5
2018-Jan-06 08:30N 53°52' E 008°45'714.0
2018-Jan-06 08:00N 53°51' E 008°57'713.8
2018-Jan-06 07:30N 53°53' E 009°08'612.9
2018-Jan-06 07:00N 53°51' E 009°18'612.1
2018-Jan-06 06:31N 53°46' E 009°24'511.0
2018-Jan-06 06:01N 53°42' E 009°30'510.1
2018-Jan-06 05:30N 53°37' E 009°33'5 9.4
2018-Jan-06 05:01N 53°34' E 009°39'5 9.0
2018-Jan-06 04:30N 53°34' E 009°46'4 8.6
2018-Jan-06 04:01N 53°33' E 009°53'3 6.6
2018-Jan-06 03:31N 53°30' E 009°57'2 2.7
2018-Jan-06 02:55N 53°28' E 009°58'0 0.0
2018-Jan-06 02:28N 53°28' E 009°58'0 0.0
2018-Jan-06 01:58N 53°28' E 009°58'0 0.0
2018-Jan-06 01:25N 53°28' E 009°58'0 0.0
2018-Jan-06 00:58N 53°28' E 009°58'0 0.0
2018-Jan-06 00:28N 53°28' E 009°58'0 0.0
2018-Jan-05 23:58N 53°28' E 009°58'0 0.0
2018-Jan-05 23:28N 53°28' E 009°58'0 0.0
2018-Jan-05 22:58N 53°28' E 009°58'0 0.0
2018-Jan-05 22:28N 53°28' E 009°58'0 0.0
2018-Jan-05 21:55N 53°28' E 009°58'0 0.0
2018-Jan-05 21:28N 53°28' E 009°58'0 0.0
2018-Jan-05 20:58N 53°28' E 009°58'0 0.0
2018-Jan-05 20:28N 53°28' E 009°58'0 0.0
2018-Jan-05 19:58N 53°28' E 009°58'0 0.0
2018-Jan-05 19:28N 53°28' E 009°58'0 0.0
2018-Jan-05 18:58N 53°28' E 009°58'0 0.0
2018-Jan-05 18:30N 53°28' E 009°58'0 0.0
2018-Jan-05 18:01N 53°28' E 009°58'0 0.3
2018-Jan-05 17:30N 53°29' E 009°58'1 2.9
2018-Jan-05 17:01N 53°30' E 009°57'3 5.5
2018-Jan-05 16:31N 53°32' E 009°55'4 7.7
2018-Jan-05 16:00N 53°33' E 009°49'510.4
2018-Jan-05 15:30N 53°34' E 009°40'510.7
2018-Jan-05 15:01N 53°37' E 009°33'510.9
2018-Jan-05 14:30N 53°42' E 009°29'510.3
2018-Jan-05 14:01N 53°46' E 009°24'510.5
2018-Jan-05 13:30N 53°51' E 009°19'510.6
2018-Jan-05 13:00N 53°53' E 009°11'5 9.3
2018-Jan-05 12:30N 53°52' E 009°03'5 9.7
2018-Jan-05 12:00N 53°51' E 008°56'5 9.9
2018-Jan-05 11:30N 53°50' E 008°47'5 9.3
2018-Jan-05 11:01N 53°54' E 008°42'5 9.4
2018-Jan-05 10:30N 53°57' E 008°37'510.2
2018-Jan-05 10:00N 53°58' E 008°28'510.4
2018-Jan-05 09:30N 53°59' E 008°20'611.8
2018-Jan-05 09:00N 53°59' E 008°09'611.4
2018-Jan-05 08:30N 53°58' E 008°00'8 2.8
2018-Jan-05 05:41N 53°51' E 008°03'3 9.8
2018-Jan-05 05:24N 53°49' E 008°07'410.9
2018-Jan-05 05:00N 53°46' E 008°11'611.9
2018-Jan-05 04:31N 53°42' E 008°19'612.0
2018-Jan-05 04:01N 53°38' E 008°26'611.4
2018-Jan-05 03:31N 53°34' E 008°33'4 8.4
2018-Jan-05 03:00N 53°30' E 008°31'510.1
2018-Jan-05 02:31N 53°25' E 008°30'4 2.8
2018-Jan-05 00:59N 53°21' E 008°30'0 0.0
2018-Jan-05 00:30N 53°21' E 008°30'0 0.0
2018-Jan-04 23:59N 53°21' E 008°30'0 0.0
2018-Jan-04 23:30N 53°21' E 008°30'0 0.0
2018-Jan-04 23:00N 53°21' E 008°30'0 0.0
2018-Jan-04 22:30N 53°21' E 008°30'0 0.0
2018-Jan-04 22:00N 53°21' E 008°30'0 0.0
2018-Jan-04 21:30N 53°21' E 008°30'0 0.0
2018-Jan-04 21:00N 53°21' E 008°30'0 0.0
2018-Jan-04 20:30N 53°21' E 008°30'0 0.0
2018-Jan-04 20:00N 53°21' E 008°30'0 0.0
2018-Jan-04 19:30N 53°21' E 008°30'0 0.0
2018-Jan-04 19:00N 53°21' E 008°30'0 0.0
2018-Jan-04 18:30N 53°21' E 008°30'0 0.0
2018-Jan-04 17:58N 53°21' E 008°30'0 0.0
2018-Jan-04 17:30N 53°21' E 008°30'0 0.0
2018-Jan-04 16:50N 53°21' E 008°30'0 0.0
2018-Jan-04 16:26N 53°21' E 008°30'0 0.0
2018-Jan-04 16:00N 53°21' E 008°30'0 0.0
2018-Jan-04 15:30N 53°21' E 008°30'0 0.0
2018-Jan-04 14:59N 53°21' E 008°30'0 0.0
2018-Jan-04 14:30N 53°21' E 008°30'0 0.0
2018-Jan-04 13:59N 53°21' E 008°30'0 0.0
2018-Jan-04 13:30N 53°21' E 008°30'0 0.0
2018-Jan-04 12:57N 53°21' E 008°30'0 0.0
2018-Jan-04 12:29N 53°21' E 008°30'0 0.0
2018-Jan-04 12:00N 53°21' E 008°30'0 0.0
2018-Jan-04 11:30N 53°21' E 008°30'0 0.0
2018-Jan-04 10:59N 53°21' E 008°30'0 0.0
2018-Jan-04 09:27N 53°21' E 008°30'0 0.0
2018-Jan-04 09:00N 53°21' E 008°30'0 0.0
2018-Jan-04 08:17N 53°21' E 008°30'0 0.0
2018-Jan-04 07:56N 53°21' E 008°30'0 0.0
2018-Jan-04 07:30N 53°21' E 008°30'0 0.0
2018-Jan-04 07:00N 53°21' E 008°30'0 0.0
2018-Jan-04 06:30N 53°21' E 008°30'0 0.0
2018-Jan-04 06:00N 53°21' E 008°30'0 0.0
2018-Jan-04 05:30N 53°21' E 008°30'0 0.0
2018-Jan-04 05:00N 53°21' E 008°30'0 0.0
2018-Jan-04 04:30N 53°21' E 008°30'0 0.0
2018-Jan-04 04:00N 53°21' E 008°30'0 0.0
2018-Jan-04 03:30N 53°21' E 008°30'0 0.0
2018-Jan-04 03:00N 53°21' E 008°30'0 0.0
2018-Jan-04 02:30N 53°21' E 008°30'0 0.0
2018-Jan-04 02:00N 53°21' E 008°30'0 0.0
2018-Jan-04 01:29N 53°21' E 008°30'0 0.0
2018-Jan-04 01:00N 53°21' E 008°30'0 0.0
2018-Jan-04 00:30N 53°21' E 008°30'0 0.0
2018-Jan-03 22:48N 53°21' E 008°30'0 0.0
2018-Jan-03 22:30N 53°21' E 008°30'0 0.3
2018-Jan-03 22:00N 53°21' E 008°30'5 9.3
2018-Jan-03 21:30N 53°25' E 008°30'5 9.9
2018-Jan-03 21:00N 53°30' E 008°31'3 6.9
2018-Jan-03 20:30N 53°33' E 008°33'5 9.3
2018-Jan-03 20:00N 53°37' E 008°28'5 9.0
2018-Jan-03 19:30N 53°40' E 008°22'4 8.3
2018-Jan-03 19:00N 53°43' E 008°17'5 8.9
2018-Jan-03 18:30N 53°46' E 008°11'4 7.2
2018-Jan-03 18:00N 53°48' E 008°08'4 8.9
2018-Jan-03 17:31N 53°51' E 008°01'4 8.6
2018-Jan-03 17:00N 53°52' E 007°54'89 9.6
2018-Jan-03 07:40N 53°34' E 005°26'211.4
2018-Jan-03 07:27N 53°33' E 005°22'612.0
2018-Jan-03 06:57N 53°31' E 005°12'512.1
2018-Jan-03 06:30N 53°29' E 005°04'612.0
2018-Jan-03 06:00N 53°27' E 004°55'611.2
2018-Jan-03 05:29N 53°25' E 004°45'1911.4
2018-Jan-03 03:47N 53°08' E 004°29'711.7
2018-Jan-03 03:09N 53°02' E 004°23'211.1
2018-Jan-03 03:00N 53°00' E 004°22'510.9
2018-Jan-03 02:30N 52°55' E 004°18'510.6
2018-Jan-03 02:00N 52°51' E 004°14'510.8
2018-Jan-03 01:30N 52°46' E 004°08'510.4
2018-Jan-03 01:00N 52°42' E 004°03'510.0
2018-Jan-03 00:30N 52°38' E 003°59'5 9.4
2018-Jan-03 00:00N 52°34' E 003°56'5 9.4
2018-Jan-02 23:31N 52°29' E 003°55'5 9.2
2018-Jan-02 23:01N 52°25' E 003°53'5 9.1
2018-Jan-02 22:30N 52°20' E 003°52'5 9.0
2018-Jan-02 21:58N 52°15' E 003°52'4 9.1
2018-Jan-02 21:30N 52°11' E 003°53'4 8.9
2018-Jan-02 21:00N 52°07' E 003°54'4 8.1
2018-Jan-02 20:30N 52°03' E 003°54'5 9.6
2018-Jan-02 20:00N 52°00' E 004°01'612.1
2018-Jan-02 19:30N 51°58' E 004°09'713.0
2018-Jan-02 19:00N 51°54' E 004°18'2 3.1
2018-Jan-02 18:28N 51°53' E 004°21'0 0.0
2018-Jan-02 17:58N 51°53' E 004°21'0 0.0
2018-Jan-02 17:28N 51°53' E 004°21'0 0.0
2018-Jan-02 16:58N 51°53' E 004°21'0 0.0
2018-Jan-02 16:30N 51°53' E 004°21'0 0.0
2018-Jan-02 16:00N 51°53' E 004°21'0 0.0
2018-Jan-02 15:30N 51°53' E 004°21'0 0.0
2018-Jan-02 15:00N 51°53' E 004°21'0 0.0
2018-Jan-02 14:30N 51°53' E 004°21'0 0.0
2018-Jan-02 14:00N 51°53' E 004°21'0 0.0
2018-Jan-02 13:30N 51°53' E 004°21'0 0.0
2018-Jan-02 13:00N 51°53' E 004°21'0 0.0
2018-Jan-02 12:30N 51°53' E 004°21'0 0.0
2018-Jan-02 12:00N 51°53' E 004°21'0 0.0
2018-Jan-02 11:30N 51°53' E 004°21'0 0.0
2018-Jan-02 11:00N 51°53' E 004°21'0 0.0
2018-Jan-02 10:30N 51°53' E 004°21'0 0.0
2018-Jan-02 10:00N 51°53' E 004°21'0 0.0
2018-Jan-02 09:31N 51°53' E 004°21'0 0.0
2018-Jan-02 08:30N 51°53' E 004°21'0 0.0
2018-Jan-02 07:59N 51°53' E 004°21'0 0.0
2018-Jan-02 07:30N 51°53' E 004°21'0 0.0
2018-Jan-02 07:00N 51°53' E 004°21'0 0.0
2018-Jan-02 06:30N 51°53' E 004°21'0 0.0
2018-Jan-02 06:00N 51°53' E 004°21'0 0.0
2018-Jan-02 05:30N 51°53' E 004°21'0 0.0
2018-Jan-02 04:30N 51°53' E 004°21'0 0.0
2018-Jan-02 04:00N 51°53' E 004°21'0 0.0
2018-Jan-02 03:30N 51°53' E 004°21'0 0.0
2018-Jan-02 03:00N 51°53' E 004°21'0 0.0
2018-Jan-02 02:30N 51°53' E 004°21'0 0.0
2018-Jan-02 02:00N 51°53' E 004°21'0 0.0
2018-Jan-02 01:30N 51°53' E 004°21'0 0.0
2018-Jan-02 01:00N 51°53' E 004°21'0 0.0
2018-Jan-02 00:30N 51°53' E 004°21'0 0.0
2018-Jan-02 00:00N 51°53' E 004°21'0 0.0
2018-Jan-01 23:30N 51°53' E 004°21'0 0.0
2018-Jan-01 23:00N 51°53' E 004°21'0 0.0
2018-Jan-01 22:30N 51°53' E 004°21'0 0.0
2018-Jan-01 22:00N 51°53' E 004°21'0 0.0
2018-Jan-01 21:30N 51°53' E 004°21'0 0.0
2018-Jan-01 21:00N 51°53' E 004°21'0 0.0
2018-Jan-01 20:30N 51°53' E 004°21'0 0.0
2018-Jan-01 20:00N 51°53' E 004°21'0 0.0
2018-Jan-01 19:30N 51°53' E 004°21'0 0.0
2018-Jan-01 19:00N 51°53' E 004°21'0 0.0
2018-Jan-01 18:30N 51°53' E 004°21'0 0.0
2018-Jan-01 18:00N 51°53' E 004°21'0 0.0
2018-Jan-01 17:30N 51°53' E 004°21'0 0.0
2018-Jan-01 15:00N 51°53' E 004°21'0 0.0
2018-Jan-01 14:30N 51°53' E 004°21'0 0.0
2018-Jan-01 14:00N 51°53' E 004°21'0 0.0
2018-Jan-01 13:30N 51°53' E 004°21'0 0.0
2018-Jan-01 13:00N 51°53' E 004°21'0 0.0
2018-Jan-01 12:00N 51°53' E 004°21'0 0.0
2018-Jan-01 11:30N 51°53' E 004°21'0 0.0
2018-Jan-01 11:00N 51°53' E 004°21'0 0.0
2018-Jan-01 10:30N 51°53' E 004°21'0 0.0
2018-Jan-01 10:01N 51°53' E 004°21'0 0.0
2018-Jan-01 09:30N 51°53' E 004°21'0 0.0
2018-Jan-01 08:30N 51°53' E 004°21'0 0.0
2018-Jan-01 07:59N 51°53' E 004°21'0 0.0
2018-Jan-01 07:30N 51°53' E 004°21'0 0.0
2018-Jan-01 07:00N 51°53' E 004°21'0 0.0
2018-Jan-01 06:00N 51°53' E 004°21'0 0.0
2018-Jan-01 05:30N 51°53' E 004°21'0 0.0
2018-Jan-01 05:00N 51°53' E 004°21'0 0.0
2018-Jan-01 04:00N 51°53' E 004°21'0 0.0
2018-Jan-01 03:30N 51°53' E 004°21'0 0.0
2018-Jan-01 03:00N 51°53' E 004°21'0 0.0
2018-Jan-01 02:30N 51°53' E 004°21'0 0.0
2018-Jan-01 02:00N 51°53' E 004°21'0 0.0
2018-Jan-01 01:30N 51°53' E 004°21'0 0.0
2018-Jan-01 00:30N 51°53' E 004°21'20 5.8
2017-Dec-31 21:00N 51°59' E 003°49'4 8.3
2017-Dec-31 20:30N 51°57' E 003°43'0 0.1
2017-Dec-31 20:01N 51°57' E 003°43'0 0.0
2017-Dec-31 19:09N 51°57' E 003°43'0 0.1
2017-Dec-31 17:54N 51°57' E 003°43'1 3.2
2017-Dec-31 17:28N 51°57' E 003°41'  

Dump ship's entire track history